Time;durP1;ratioP1;P1;durP2;ratioP2;P2;SDS_P1;SDS_P2;PMS_P1;PMS_P2;Temp;Humidity;BMP_temperature;BMP_pressure;BME280_temperature;BME280_humidity;BME280_pressure;Samples;Min_cycle;Max_cycle;Signal;HPM_P1;HPM_P2
2022/01/20 00:01:56;;;;;;;13.37;2.80;;;5.40;99.90;;;;;;5041604;28;20219;-80
2022/01/20 00:04:28;;;;;;;14.80;2.53;;;5.40;99.90;;;;;;5038639;28;20230;-80
2022/01/20 00:07:27;;;;;;;15.97;2.77;;;5.40;99.90;;;;;;5026416;28;20247;-80
2022/01/20 00:26:28;;;;;;;16.33;2.80;;;5.20;99.90;;;;;;5018305;28;20251;-80
2022/01/20 00:29:00;;;;;;;18.70;3.20;;;5.20;99.90;;;;;;5028296;28;20228;-81
2022/01/20 00:31:35;;;;;;;18.37;3.30;;;5.20;99.90;;;;;;5025326;28;20273;-81
2022/01/20 00:34:15;;;;;;;17.63;3.97;;;5.20;99.90;;;;;;5039514;28;21015;-80
2022/01/20 00:39:28;;;;;;;14.23;3.73;;;5.30;99.90;;;;;;5046413;28;20222;-78
2022/01/20 00:41:55;;;;;;;20.23;3.70;;;5.40;99.90;;;;;;5031352;28;20689;-78
2022/01/20 00:44:24;;;;;;;20.50;3.73;;;5.40;99.90;;;;;;5025423;28;20222;-78
2022/01/20 00:46:50;;;;;;;19.80;4.20;;;5.50;99.90;;;;;;5032874;28;20558;-79
2022/01/20 00:49:17;;;;;;;17.93;3.60;;;5.60;99.90;;;;;;5019932;28;20242;-77
2022/01/20 00:51:44;;;;;;;23.87;4.30;;;5.70;99.90;;;;;;5035789;28;20747;-78
2022/01/20 00:54:10;;;;;;;15.80;3.40;;;5.70;99.90;;;;;;5027634;28;20223;-78
2022/01/20 00:56:37;;;;;;;23.57;3.53;;;5.80;99.90;;;;;;5035917;28;20243;-79
2022/01/20 00:59:04;;;;;;;28.10;4.93;;;5.90;99.90;;;;;;5044397;28;20687;-78
2022/01/20 01:01:32;;;;;;;20.10;3.83;;;5.90;99.90;;;;;;5028433;28;20255;-79
2022/01/20 01:03:59;;;;;;;13.30;3.67;;;6.00;99.90;;;;;;5028806;28;20761;-79
2022/01/20 01:06:43;;;;;;;19.33;4.20;;;6.00;99.90;;;;;;5048102;28;20226;-79
2022/01/20 01:09:11;;;;;;;14.70;3.40;;;6.10;99.90;;;;;;5032167;28;20231;-78
2022/01/20 01:11:41;;;;;;;18.10;4.67;;;6.10;99.90;;;;;;5035028;28;20501;-79
2022/01/20 01:14:08;;;;;;;23.50;4.37;;;6.20;99.90;;;;;;5020839;28;20222;-78
2022/01/20 01:20:00;;;;;;;17.57;3.27;;;6.30;99.90;;;;;;5051787;28;20254;-79
2022/01/20 01:22:21;;;;;;;12.77;3.27;;;6.30;99.90;;;;;;5027510;28;20229;-78
2022/01/20 01:24:52;;;;;;;17.20;3.13;;;6.40;99.90;;;;;;5035949;28;20237;-80
2022/01/20 01:27:19;;;;;;;12.27;2.53;;;6.40;99.90;;;;;;5026182;28;20239;-80
2022/01/20 01:30:04;;;;;;;15.20;2.70;;;6.40;99.90;;;;;;5033247;28;20230;-80
2022/01/20 01:32:41;;;;;;;14.77;2.87;;;6.50;99.90;;;;;;5021408;28;20232;-79
2022/01/20 01:35:09;;;;;;;13.17;2.83;;;6.50;99.90;;;;;;5029416;28;20234;-79
2022/01/20 01:38:24;;;;;;;16.17;2.80;;;6.50;99.90;;;;;;5040786;28;20278;-79
2022/01/20 01:40:26;;;;;;;14.07;2.77;;;6.50;99.90;;;;;;5026304;28;20277;-80
2022/01/20 01:42:53;;;;;;;10.17;2.70;;;6.50;99.90;;;;;;5032631;28;20924;-79
2022/01/20 01:45:27;;;;;;;16.50;2.67;;;6.50;99.90;;;;;;5028121;28;20277;-80
2022/01/20 01:47:57;;;;;;;11.67;2.63;;;6.40;99.90;;;;;;5027130;28;20887;-81
2022/01/20 01:50:26;;;;;;;9.80;2.10;;;6.40;99.90;;;;;;5027077;28;20215;-80
2022/01/20 01:52:55;;;;;;;9.27;2.40;;;6.30;99.90;;;;;;5027279;28;20227;-80
2022/01/20 01:55:23;;;;;;;12.47;2.20;;;6.30;99.90;;;;;;5026177;28;20240;-79
2022/01/20 01:57:50;;;;;;;5.60;2.07;;;6.20;99.90;;;;;;5026802;28;20259;-80
2022/01/20 02:00:20;;;;;;;6.97;1.80;;;6.10;99.90;;;;;;5022304;28;20392;-79
2022/01/20 02:02:53;;;;;;;12.10;1.60;;;6.00;99.90;;;;;;5023347;28;20277;-82
2022/01/20 02:05:26;;;;;;;9.37;1.83;;;6.00;99.90;;;;;;5028062;28;20705;-82
2022/01/20 02:18:59;;;;;;;9.23;2.10;;;5.80;99.90;;;;;;5035195;28;20685;-81
2022/01/20 02:21:47;;;;;;;11.80;2.40;;;5.80;99.90;;;;;;5037340;28;20306;-81
2022/01/20 02:24:14;;;;;;;9.27;1.77;;;5.70;99.90;;;;;;5032145;28;20292;-81
2022/01/20 02:26:41;;;;;;;9.83;2.10;;;5.70;99.90;;;;;;5030034;28;20264;-80
2022/01/20 02:29:10;;;;;;;9.80;2.57;;;5.70;99.90;;;;;;5037835;28;20691;-80
2022/01/20 02:31:36;;;;;;;13.17;2.67;;;5.70;99.90;;;;;;5030724;28;20245;-81
2022/01/20 02:34:04;;;;;;;10.07;2.37;;;5.60;99.90;;;;;;5024278;28;20232;-82
2022/01/20 02:36:35;;;;;;;11.10;3.07;;;5.60;99.90;;;;;;5034700;28;20251;-81
2022/01/20 02:39:11;;;;;;;12.27;2.17;;;5.60;99.90;;;;;;5032009;28;20227;-82
2022/01/20 02:47:14;;;;;;;8.10;2.33;;;5.50;99.90;;;;;;5024423;28;20234;-79
2022/01/20 02:49:41;;;;;;;15.40;2.53;;;5.50;99.90;;;;;;5031279;28;20230;-80
2022/01/20 02:52:08;;;;;;;11.37;2.37;;;5.50;99.90;;;;;;5032964;28;20701;-81
2022/01/20 02:54:36;;;;;;;10.87;2.43;;;5.50;99.90;;;;;;5034033;28;20660;-81
2022/01/20 02:57:04;;;;;;;11.63;2.60;;;5.50;99.90;;;;;;5028997;28;20230;-81
2022/01/20 02:59:32;;;;;;;12.03;2.40;;;5.40;99.90;;;;;;5030179;28;20730;-79
2022/01/20 03:01:58;;;;;;;13.67;2.27;;;5.40;99.90;;;;;;5026288;28;20579;-80
2022/01/20 03:04:26;;;;;;;16.07;3.17;;;5.40;99.90;;;;;;5033265;28;20257;-81
2022/01/20 03:06:55;;;;;;;11.83;2.73;;;5.40;99.90;;;;;;5025953;28;20232;-81
2022/01/20 03:09:22;;;;;;;11.90;2.70;;;5.30;99.90;;;;;;5034208;28;20288;-79
2022/01/20 03:11:50;;;;;;;11.53;2.73;;;5.40;99.90;;;;;;5025395;28;20242;-80
2022/01/20 03:14:18;;;;;;;17.40;2.50;;;5.30;99.90;;;;;;5019492;28;20225;-80
2022/01/20 03:16:45;;;;;;;14.27;3.00;;;5.30;99.90;;;;;;5026213;28;20312;-78
2022/01/20 03:19:12;;;;;;;16.30;2.57;;;5.30;99.90;;;;;;5031835;28;20227;-81
2022/01/20 03:21:39;;;;;;;13.50;2.97;;;5.20;99.90;;;;;;5025527;28;20717;-81
2022/01/20 03:24:07;;;;;;;14.73;3.03;;;5.20;99.90;;;;;;5027893;28;20244;-82
2022/01/20 03:26:34;;;;;;;18.77;3.90;;;5.20;99.90;;;;;;5019002;28;20240;-78
2022/01/20 03:29:03;;;;;;;20.73;3.77;;;5.20;99.90;;;;;;5027469;28;20666;-82
2022/01/20 03:31:31;;;;;;;19.80;3.30;;;5.20;99.90;;;;;;5026625;28;20282;-80
2022/01/20 03:33:58;;;;;;;16.43;2.80;;;5.10;99.90;;;;;;5032006;28;20576;-78
2022/01/20 03:36:25;;;;;;;15.73;3.40;;;5.10;99.90;;;;;;5021627;28;20235;-81
2022/01/20 03:39:12;;;;;;;12.27;3.07;;;5.10;99.90;;;;;;5025260;28;20679;-80
2022/01/20 03:41:39;;;;;;;13.83;2.77;;;5.00;99.90;;;;;;5031687;28;20235;-81
2022/01/20 03:44:17;;;;;;;14.93;2.40;;;5.00;99.90;;;;;;5032418;28;20222;-81
2022/01/20 03:46:44;;;;;;;10.80;2.47;;;5.00;99.90;;;;;;5028887;28;20246;-79
2022/01/20 03:49:24;;;;;;;11.73;3.10;;;5.00;99.90;;;;;;5025143;28;20246;-81
2022/01/20 03:51:51;;;;;;;9.03;2.17;;;5.00;99.90;;;;;;5027026;28;20249;-81
2022/01/20 03:54:18;;;;;;;10.20;1.93;;;5.00;99.90;;;;;;5048253;28;20319;-80
2022/01/20 03:57:05;;;;;;;8.90;2.10;;;5.00;99.90;;;;;;5045627;28;20219;-81
2022/01/20 03:59:52;;;;;;;7.80;2.30;;;5.00;99.90;;;;;;5043004;28;20238;-80
2022/01/20 04:02:27;;;;;;;10.87;2.27;;;5.10;99.90;;;;;;5030643;28;20239;-80
2022/01/20 04:05:03;;;;;;;8.73;2.40;;;5.00;99.90;;;;;;5029047;28;20226;-80
2022/01/20 04:07:34;;;;;;;12.53;3.50;;;5.00;99.90;;;;;;5030273;28;20397;-79
2022/01/20 04:10:00;;;;;;;10.40;2.33;;;4.90;99.90;;;;;;5024357;28;20691;-80
2022/01/20 04:12:27;;;;;;;9.67;2.37;;;4.80;99.90;;;;;;5036850;28;20306;-79
2022/01/20 04:14:55;;;;;;;9.77;1.70;;;4.80;99.90;;;;;;5039166;28;20317;-79
2022/01/20 04:17:26;;;;;;;9.07;2.40;;;4.70;99.90;;;;;;5033271;28;20635;-79
2022/01/20 04:19:53;;;;;;;9.80;2.50;;;4.70;99.90;;;;;;5050726;28;20225;-79
2022/01/20 04:22:20;;;;;;;12.00;2.10;;;4.60;99.90;;;;;;5052575;28;20232;-79
2022/01/20 04:24:46;;;;;;;12.13;2.50;;;4.60;99.90;;;;;;5023796;28;20239;-79
2022/01/20 04:27:13;;;;;;;13.17;2.10;;;4.60;99.90;;;;;;5035479;28;20226;-79
2022/01/20 04:29:40;;;;;;;10.57;2.67;;;4.50;99.90;;;;;;5046596;28;20247;-79
2022/01/20 04:32:09;;;;;;;15.93;2.60;;;4.50;99.90;;;;;;5038907;28;20336;-78
2022/01/20 04:34:35;;;;;;;11.60;2.00;;;4.50;99.90;;;;;;5041614;28;20233;-78
2022/01/20 04:37:05;;;;;;;7.20;2.37;;;4.50;99.90;;;;;;5034621;28;20230;-79
2022/01/20 04:39:35;;;;;;;11.03;2.07;;;4.40;99.90;;;;;;5039299;28;20314;-79
2022/01/20 04:42:02;;;;;;;13.50;2.80;;;4.40;99.90;;;;;;5033091;28;20241;-79
2022/01/20 04:44:39;;;;;;;12.93;2.70;;;4.40;99.90;;;;;;5022938;28;20236;-80
2022/01/20 04:47:18;;;;;;;9.90;2.47;;;4.40;99.90;;;;;;5018554;28;20421;-80
2022/01/20 04:58:00;;;;;;;10.27;2.70;;;4.30;99.90;;;;;;5034485;28;20223;-78
2022/01/20 05:00:27;;;;;;;12.57;2.60;;;4.30;99.90;;;;;;5028255;28;20281;-79
2022/01/20 05:03:14;;;;;;;11.17;2.40;;;4.30;99.90;;;;;;5046802;28;20290;-78
2022/01/20 05:05:42;;;;;;;12.47;2.97;;;4.30;99.90;;;;;;5031671;28;20220;-78
2022/01/20 05:08:17;;;;;;;12.07;2.57;;;4.20;99.90;;;;;;5032079;28;20224;-79
2022/01/20 05:10:44;;;;;;;16.40;2.73;;;4.20;99.90;;;;;;5031326;28;20692;-79
2022/01/20 05:13:21;;;;;;;10.97;2.43;;;4.20;99.90;;;;;;5027103;28;20235;-77
2022/01/20 05:15:48;;;;;;;10.07;2.53;;;4.20;99.90;;;;;;5030596;28;20229;-78
2022/01/20 05:18:17;;;;;;;18.17;3.17;;;4.20;99.90;;;;;;5040155;28;20231;-76
2022/01/20 05:20:45;;;;;;;14.40;3.10;;;4.10;99.90;;;;;;5036681;28;20263;-77
2022/01/20 05:23:12;;;;;;;15.70;3.20;;;4.10;99.90;;;;;;5024838;28;20433;-78
2022/01/20 05:25:38;;;;;;;18.10;2.80;;;4.10;99.90;;;;;;5034219;28;20239;-82
2022/01/20 05:28:06;;;;;;;13.07;2.93;;;4.10;99.90;;;;;;5031603;28;20743;-79
2022/01/20 05:30:33;;;;;;;21.67;3.23;;;4.10;99.90;;;;;;5030114;28;20229;-79
2022/01/20 05:33:19;;;;;;;14.60;2.60;;;4.10;99.90;;;;;;5043289;28;20580;-77
2022/01/20 05:35:46;;;;;;;14.97;3.80;;;4.10;99.90;;;;;;5028622;28;20320;-78
2022/01/20 05:38:13;;;;;;;14.53;2.77;;;4.10;99.90;;;;;;5024550;28;20303;-78
2022/01/20 05:40:41;;;;;;;15.87;3.80;;;4.10;99.90;;;;;;5023621;28;20236;-78
2022/01/20 05:43:08;;;;;;;18.30;3.67;;;4.10;99.90;;;;;;5029411;28;20743;-77
2022/01/20 05:45:36;;;;;;;14.87;2.80;;;4.10;99.90;;;;;;5029804;28;20219;-78
2022/01/20 05:48:10;;;;;;;13.07;2.47;;;4.10;99.90;;;;;;5033239;28;20219;-78
2022/01/20 05:50:58;;;;;;;19.67;3.80;;;4.10;99.90;;;;;;4999439;28;20564;-77
2022/01/20 05:53:25;;;;;;;16.33;3.17;;;4.10;99.90;;;;;;5028442;28;20255;-77
2022/01/20 05:55:52;;;;;;;10.73;2.60;;;4.10;99.90;;;;;;5029917;28;20253;-77
2022/01/20 05:58:20;;;;;;;16.33;2.87;;;4.10;99.90;;;;;;5028989;28;20233;-77
2022/01/20 06:00:48;;;;;;;10.27;2.57;;;4.10;99.90;;;;;;5025450;28;20278;-78
2022/01/20 06:06:01;;;;;;;20.10;3.50;;;4.10;99.90;;;;;;5025732;28;20889;-77
2022/01/20 06:08:28;;;;;;;15.03;2.80;;;4.10;99.90;;;;;;5024985;28;20229;-77
2022/01/20 06:10:55;;;;;;;16.10;3.20;;;4.10;99.90;;;;;;5025335;28;20284;-77
2022/01/20 06:13:26;;;;;;;15.60;3.47;;;4.10;99.90;;;;;;5026720;28;20252;-77
2022/01/20 06:15:53;;;;;;;15.47;3.17;;;4.10;99.90;;;;;;5028136;28;20765;-77
2022/01/20 06:18:20;;;;;;;17.17;4.10;;;4.10;99.90;;;;;;5028488;28;20226;-77
2022/01/20 06:20:53;;;;;;;20.20;2.73;;;4.00;99.90;;;;;;5030263;28;20237;-77
2022/01/20 06:23:23;;;;;;;20.63;3.80;;;4.00;99.90;;;;;;5025321;28;20222;-77
2022/01/20 06:25:51;;;;;;;18.27;4.00;;;4.10;99.90;;;;;;5026226;28;20280;-76
2022/01/20 06:28:18;;;;;;;17.90;3.47;;;4.00;99.90;;;;;;5025783;28;20231;-77
2022/01/20 06:30:45;;;;;;;14.63;3.17;;;4.00;99.90;;;;;;5042120;28;20234;-77
2022/01/20 06:33:12;;;;;;;17.93;4.23;;;4.00;99.90;;;;;;5020391;28;21362;-77
2022/01/20 06:35:44;;;;;;;16.20;3.27;;;4.00;99.90;;;;;;5027044;28;20607;-77
2022/01/20 06:38:11;;;;;;;16.40;3.10;;;4.00;99.90;;;;;;5022998;28;21094;-77
2022/01/20 06:40:39;;;;;;;14.97;4.03;;;4.10;99.90;;;;;;5029179;28;20955;-77
2022/01/20 06:43:06;;;;;;;15.20;2.80;;;4.00;99.90;;;;;;5021536;28;20306;-77
2022/01/20 06:45:33;;;;;;;13.53;3.17;;;4.00;99.90;;;;;;5024155;28;20293;-77
2022/01/20 06:48:07;;;;;;;16.17;3.63;;;4.00;99.90;;;;;;5023030;28;20229;-77
2022/01/20 06:50:37;;;;;;;18.23;3.57;;;4.00;99.90;;;;;;5025131;28;20852;-77
2022/01/20 06:53:04;;;;;;;17.47;2.80;;;4.00;99.90;;;;;;5021432;28;20227;-77
2022/01/20 06:55:34;;;;;;;16.83;2.80;;;4.00;99.90;;;;;;5021576;28;20616;-77
2022/01/20 06:58:02;;;;;;;17.10;3.30;;;4.00;99.90;;;;;;5023240;28;20243;-77
2022/01/20 07:00:29;;;;;;;19.87;3.57;;;4.00;99.90;;;;;;5019118;28;20235;-77
2022/01/20 07:02:57;;;;;;;18.63;4.07;;;4.00;99.90;;;;;;5025678;28;20288;-76
2022/01/20 07:05:24;;;;;;;11.80;3.10;;;4.00;99.90;;;;;;5024620;28;20339;-77
2022/01/20 07:07:51;;;;;;;13.53;3.30;;;4.00;99.90;;;;;;5042205;28;20230;-77
2022/01/20 07:10:22;;;;;;;20.30;2.90;;;4.00;99.90;;;;;;5022566;28;20296;-77
2022/01/20 07:12:52;;;;;;;18.50;3.30;;;4.00;99.90;;;;;;5026857;28;21978;-77
2022/01/20 07:15:20;;;;;;;18.37;3.07;;;4.00;99.90;;;;;;5029622;28;20230;-77
2022/01/20 07:17:49;;;;;;;12.00;2.83;;;4.00;99.90;;;;;;5021985;28;20234;-76
2022/01/20 07:20:18;;;;;;;18.00;3.50;;;4.00;99.90;;;;;;5020098;28;20221;-76
2022/01/20 07:23:08;;;;;;;18.03;3.27;;;4.00;99.90;;;;;;5030978;28;20988;-77
2022/01/20 07:25:46;;;;;;;19.33;4.07;;;4.00;99.90;;;;;;5024521;28;20232;-77
2022/01/20 07:28:15;;;;;;;17.20;3.57;;;4.00;99.90;;;;;;5022775;28;20250;-77
2022/01/20 07:30:43;;;;;;;20.13;3.40;;;4.00;99.90;;;;;;5024188;28;20235;-77
2022/01/20 07:33:10;;;;;;;16.77;3.57;;;4.00;99.90;;;;;;5019934;28;20685;-76
2022/01/20 07:35:39;;;;;;;12.50;3.37;;;4.00;99.90;;;;;;5021892;28;20325;-77
2022/01/20 07:38:08;;;;;;;12.27;2.83;;;4.00;99.90;;;;;;5024618;28;20222;-77
2022/01/20 07:40:36;;;;;;;18.10;4.27;;;4.00;99.90;;;;;;5028953;28;20255;-77
2022/01/20 07:43:03;;;;;;;16.83;3.97;;;4.00;99.90;;;;;;5017422;28;20315;-77
2022/01/20 07:45:48;;;;;;;14.60;3.50;;;4.00;99.90;;;;;;5022727;28;20245;-77
2022/01/20 07:48:44;;;;;;;17.03;3.53;;;4.00;99.90;;;;;;5023439;28;20819;-77
2022/01/20 07:51:17;;;;;;;16.00;3.27;;;4.10;99.90;;;;;;5029827;28;20307;-76
2022/01/20 07:53:45;;;;;;;14.63;3.50;;;4.10;99.90;;;;;;5023626;28;20251;-77
2022/01/20 07:56:12;;;;;;;13.13;2.90;;;4.20;99.90;;;;;;5021848;28;20231;-75
2022/01/20 07:58:41;;;;;;;12.60;3.33;;;4.30;99.90;;;;;;5023030;28;20235;-77
2022/01/20 08:01:09;;;;;;;15.53;3.60;;;4.30;99.90;;;;;;5020413;28;20305;-76
2022/01/20 08:03:44;;;;;;;17.87;3.20;;;4.30;99.90;;;;;;5016868;28;20652;-77
2022/01/20 08:06:14;;;;;;;17.23;3.20;;;4.40;99.90;;;;;;5016577;28;20228;-77
2022/01/20 08:08:45;;;;;;;19.27;3.40;;;4.40;99.90;;;;;;5018616;28;20251;-77
2022/01/20 08:11:27;;;;;;;18.63;4.20;;;4.40;99.90;;;;;;5038036;28;20803;-76
2022/01/20 08:14:03;;;;;;;20.17;3.60;;;4.40;99.90;;;;;;5024985;28;20227;-77
2022/01/20 08:16:31;;;;;;;17.67;4.17;;;4.50;99.90;;;;;;5027143;28;20311;-79
2022/01/20 08:18:57;;;;;;;16.10;2.77;;;4.50;99.90;;;;;;5024239;28;20228;-76
2022/01/20 08:21:24;;;;;;;12.87;2.97;;;4.60;99.90;;;;;;5017866;28;20248;-76
2022/01/20 08:23:52;;;;;;;16.23;2.87;;;4.70;99.90;;;;;;5017145;28;20236;-77
2022/01/20 08:26:19;;;;;;;16.43;3.27;;;4.70;99.90;;;;;;5039077;28;20283;-78
2022/01/20 08:28:46;;;;;;;14.07;2.73;;;4.80;99.90;;;;;;5042977;28;20235;-79
2022/01/20 08:31:13;;;;;;;17.60;2.83;;;4.80;99.90;;;;;;5024037;28;20931;-79
2022/01/20 08:33:42;;;;;;;15.53;2.87;;;4.90;99.70;;;;;;5022603;28;20289;-79
2022/01/20 08:36:15;;;;;;;13.77;3.00;;;4.90;99.80;;;;;;5018906;28;20222;-78
2022/01/20 08:38:53;;;;;;;16.40;3.17;;;5.00;99.90;;;;;;5020135;28;20232;-79
2022/01/20 08:41:19;;;;;;;12.23;2.60;;;5.10;99.90;;;;;;5023928;28;20231;-77
2022/01/20 08:43:46;;;;;;;11.17;3.30;;;5.30;99.90;;;;;;5020216;28;20339;-79
2022/01/20 08:46:13;;;;;;;14.80;2.90;;;5.50;99.90;;;;;;5027228;28;20231;-77
2022/01/20 08:48:42;;;;;;;14.77;2.53;;;5.70;99.90;;;;;;5025940;28;20681;-78
2022/01/20 08:51:35;;;;;;;16.33;2.33;;;6.00;99.90;;;;;;5036005;28;20660;-79
2022/01/20 08:54:14;;;;;;;11.17;2.80;;;6.30;99.90;;;;;;5027182;28;20232;-78
2022/01/20 08:56:41;;;;;;;16.27;3.30;;;6.60;99.90;;;;;;5027312;28;20240;-78
2022/01/20 08:59:09;;;;;;;10.10;2.43;;;6.90;99.80;;;;;;5027332;28;20227;-78
2022/01/20 09:01:38;;;;;;;12.83;3.20;;;7.20;99.50;;;;;;5025155;28;20239;-78
2022/01/20 09:04:07;;;;;;;10.07;2.87;;;7.40;99.60;;;;;;5022542;28;20255;-79
2022/01/20 09:06:36;;;;;;;12.80;2.80;;;7.70;99.00;;;;;;5030560;28;20745;-79
2022/01/20 09:09:17;;;;;;;9.23;2.20;;;7.80;98.50;;;;;;5025813;28;20242;-79
2022/01/20 09:12:02;;;;;;;11.53;2.10;;;8.00;98.30;;;;;;5036809;28;20238;-79
2022/01/20 09:17:14;;;;;;;15.97;3.10;;;8.20;98.00;;;;;;5032029;28;20246;-79
2022/01/20 09:19:42;;;;;;;8.73;2.90;;;8.40;98.10;;;;;;5026822;28;20236;-80
2022/01/20 09:22:09;;;;;;;14.63;2.80;;;8.50;97.90;;;;;;5040994;28;20226;-79
2022/01/20 09:24:36;;;;;;;9.20;2.80;;;8.70;97.70;;;;;;5022628;28;20369;-79
2022/01/20 09:27:05;;;;;;;15.43;3.27;;;8.90;98.00;;;;;;5032264;28;20263;-80
2022/01/20 09:29:32;;;;;;;14.93;3.63;;;9.10;97.90;;;;;;5028753;28;20325;-79
2022/01/20 09:32:04;;;;;;;11.60;2.83;;;9.30;97.20;;;;;;5032210;28;20725;-80
2022/01/20 09:34:33;;;;;;;10.73;2.70;;;9.40;96.70;;;;;;5023720;28;20237;-80
2022/01/20 09:37:01;;;;;;;12.30;2.47;;;9.30;96.30;;;;;;5028101;28;20632;-80
2022/01/20 09:39:28;;;;;;;11.67;2.60;;;9.20;95.80;;;;;;5025987;28;20224;-80
2022/01/20 09:41:59;;;;;;;10.27;2.57;;;9.00;96.10;;;;;;5027162;28;20233;-80
2022/01/20 09:44:27;;;;;;;7.57;1.90;;;8.70;95.90;;;;;;5022063;28;20228;-80
2022/01/20 09:46:55;;;;;;;11.97;2.17;;;8.40;95.80;;;;;;5024137;28;20716;-80
2022/01/20 09:49:38;;;;;;;7.50;1.90;;;8.20;95.80;;;;;;5032590;28;20250;-79
2022/01/20 09:52:12;;;;;;;11.13;2.07;;;7.90;95.90;;;;;;5021172;28;20226;-79
2022/01/20 09:54:43;;;;;;;8.23;2.37;;;7.60;96.00;;;;;;5022336;28;20230;-80
2022/01/20 09:57:17;;;;;;;17.17;2.40;;;7.40;96.30;;;;;;5024957;28;20234;-80
2022/01/20 09:59:44;;;;;;;10.77;2.20;;;7.30;96.70;;;;;;5022597;28;20243;-79
2022/01/20 10:02:18;;;;;;;8.87;2.00;;;7.20;96.70;;;;;;5026055;28;20235;-78
2022/01/20 10:04:45;;;;;;;10.30;2.10;;;7.10;97.10;;;;;;5028632;28;20263;-78
2022/01/20 10:07:33;;;;;;;8.40;1.90;;;7.10;97.30;;;;;;5026966;28;20587;-78
2022/01/20 10:10:05;;;;;;;7.43;1.47;;;7.10;97.20;;;;;;5021508;28;20323;-78
2022/01/20 10:13:04;;;;;;;6.43;1.83;;;7.10;97.50;;;;;;5026177;28;20235;-79
2022/01/20 10:16:00;;;;;;;12.53;2.03;;;7.10;97.60;;;;;;5040911;28;20235;-79
2022/01/20 10:18:47;;;;;;;10.00;1.90;;;7.20;97.80;;;;;;5023364;28;20696;-79
2022/01/20 10:21:16;;;;;;;6.63;1.90;;;7.20;98.00;;;;;;5032426;28;20226;-80
2022/01/20 10:23:51;;;;;;;7.93;2.03;;;7.20;98.00;;;;;;5026310;28;20932;-80
2022/01/20 10:26:37;;;;;;;9.17;1.83;;;7.20;97.60;;;;;;5025330;28;20242;-79
2022/01/20 10:29:06;;;;;;;7.47;2.13;;;7.20;97.70;;;;;;5030175;28;20227;-80
2022/01/20 10:31:36;;;;;;;15.70;2.77;;;7.00;97.90;;;;;;5023158;28;20238;-79
2022/01/20 10:34:06;;;;;;;8.73;2.13;;;6.80;98.10;;;;;;5019355;28;20837;-80
2022/01/20 10:36:40;;;;;;;7.80;2.00;;;6.60;98.30;;;;;;5047348;28;20247;-79
2022/01/20 10:39:39;;;;;;;11.27;2.03;;;6.40;98.60;;;;;;5030441;28;20317;-78
2022/01/20 10:42:08;;;;;;;10.27;2.23;;;6.20;98.90;;;;;;5026714;28;20241;-77
2022/01/20 10:44:48;;;;;;;6.87;1.70;;;6.00;99.10;;;;;;5020014;28;20254;-79
2022/01/20 10:47:16;;;;;;;9.20;1.47;;;5.90;99.20;;;;;;5026249;28;20233;-77
2022/01/20 10:49:45;;;;;;;7.90;1.43;;;5.80;99.30;;;;;;5023826;28;20281;-78
2022/01/20 10:52:15;;;;;;;4.10;1.37;;;5.80;99.20;;;;;;5038494;28;20231;-79
2022/01/20 10:54:47;;;;;;;4.73;1.37;;;5.70;99.10;;;;;;5025062;28;20242;-79
2022/01/20 10:57:28;;;;;;;6.83;2.03;;;5.70;99.50;;;;;;5025073;28;20706;-79
2022/01/20 10:59:57;;;;;;;4.67;1.10;;;5.90;99.80;;;;;;5031063;28;20218;-78
2022/01/20 11:02:35;;;;;;;5.57;1.53;;;6.10;99.90;;;;;;5026726;28;20777;-79
2022/01/20 11:05:01;;;;;;;5.50;1.57;;;6.40;99.90;;;;;;5027048;28;20298;-79
2022/01/20 11:07:29;;;;;;;5.13;1.30;;;6.70;99.90;;;;;;5024508;28;20313;-78
2022/01/20 11:10:02;;;;;;;4.43;1.30;;;6.90;99.20;;;;;;5021526;28;20234;-79
2022/01/20 11:12:49;;;;;;;4.50;1.40;;;7.10;99.10;;;;;;5029589;28;20231;-79
2022/01/20 11:15:31;;;;;;;7.67;1.50;;;7.30;99.20;;;;;;5018517;28;20359;-79
2022/01/20 11:17:59;;;;;;;4.00;1.23;;;7.50;99.50;;;;;;5022312;28;20260;-77
2022/01/20 11:20:32;;;;;;;5.60;1.50;;;7.70;99.40;;;;;;5034872;28;20311;-78
2022/01/20 11:23:02;;;;;;;5.77;1.40;;;7.90;99.30;;;;;;5020590;28;20355;-78
2022/01/20 11:25:39;;;;;;;7.00;2.20;;;8.10;98.90;;;;;;5024503;28;20638;-80
2022/01/20 11:28:25;;;;;;;10.53;2.13;;;8.30;99.00;;;;;;5019529;28;20650;-79
2022/01/20 11:31:09;;;;;;;10.83;2.50;;;8.50;98.40;;;;;;5018948;28;20601;-79
2022/01/20 11:33:48;;;;;;;8.40;2.03;;;8.60;98.40;;;;;;5024004;28;20314;-79
2022/01/20 11:36:22;;;;;;;11.60;2.70;;;8.70;98.40;;;;;;5025619;28;20226;-80
2022/01/20 11:38:50;;;;;;;11.90;2.40;;;8.80;97.70;;;;;;5025391;28;20244;-80
2022/01/20 11:41:21;;;;;;;8.57;1.73;;;8.80;97.50;;;;;;5027880;28;20623;-80
2022/01/20 11:43:50;;;;;;;6.80;2.00;;;8.70;96.40;;;;;;5022735;28;20968;-80
2022/01/20 11:46:19;;;;;;;10.67;2.10;;;8.60;96.30;;;;;;5021925;28;20222;-79
2022/01/20 11:48:56;;;;;;;7.43;2.43;;;8.40;96.10;;;;;;5042418;28;20246;-79
2022/01/20 11:51:23;;;;;;;7.93;2.00;;;8.20;96.20;;;;;;5038735;28;20223;-80
2022/01/20 11:53:58;;;;;;;12.07;2.20;;;8.10;96.20;;;;;;5024905;28;20717;-80
2022/01/20 11:56:31;;;;;;;10.63;1.90;;;8.10;96.10;;;;;;5022663;28;20254;-79
2022/01/20 11:58:58;;;;;;;6.97;2.03;;;8.00;95.70;;;;;;5042024;28;20589;-79
2022/01/20 12:01:27;;;;;;;5.57;1.87;;;8.00;95.80;;;;;;5028209;28;20434;-79
2022/01/20 12:03:56;;;;;;;12.97;2.20;;;7.90;95.70;;;;;;5040687;28;20219;-79
2022/01/20 12:06:42;;;;;;;12.70;2.60;;;7.90;96.00;;;;;;5025629;28;20364;-79
2022/01/20 12:09:17;;;;;;;9.13;2.17;;;7.80;95.80;;;;;;5029297;28;20764;-78
2022/01/20 12:11:47;;;;;;;14.67;2.77;;;7.70;95.60;;;;;;5025629;28;20228;-79
2022/01/20 12:14:27;;;;;;;6.20;2.23;;;7.60;95.60;;;;;;5022033;28;20301;-80
2022/01/20 12:17:03;;;;;;;10.90;2.03;;;7.50;95.50;;;;;;5040661;28;20949;-81
2022/01/20 12:19:31;;;;;;;7.37;1.60;;;7.50;95.30;;;;;;5042430;28;20228;-78
2022/01/20 12:21:57;;;;;;;10.67;2.40;;;7.40;95.90;;;;;;5032609;28;20224;-79
2022/01/20 12:24:24;;;;;;;10.17;2.47;;;7.40;95.60;;;;;;5025823;28;20244;-79
2022/01/20 12:26:52;;;;;;;8.33;2.33;;;7.30;95.60;;;;;;5027918;28;20237;-77
2022/01/20 12:29:19;;;;;;;7.97;1.47;;;7.30;95.80;;;;;;5045920;28;20811;-79
2022/01/20 12:31:48;;;;;;;12.40;2.37;;;7.20;95.90;;;;;;5041619;28;20612;-79
2022/01/20 12:34:15;;;;;;;8.50;1.90;;;7.20;96.20;;;;;;5021209;28;20228;-78
2022/01/20 12:36:50;;;;;;;10.67;2.00;;;7.20;96.00;;;;;;5048183;28;20241;-78
2022/01/20 12:39:22;;;;;;;11.73;2.20;;;7.20;95.80;;;;;;5046141;28;20231;-79
2022/01/20 12:41:56;;;;;;;6.97;2.00;;;7.20;95.80;;;;;;5028919;28;20232;-79
2022/01/20 12:44:24;;;;;;;9.30;2.10;;;7.20;95.70;;;;;;5026391;28;20369;-79
2022/01/20 12:46:51;;;;;;;8.07;2.33;;;7.10;95.70;;;;;;5031346;28;21194;-79
2022/01/20 12:49:19;;;;;;;6.50;2.23;;;7.00;95.60;;;;;;5047560;28;20228;-79
2022/01/20 12:51:48;;;;;;;4.37;1.40;;;7.00;95.60;;;;;;5028267;28;20245;-79
2022/01/20 12:54:17;;;;;;;5.73;1.67;;;6.90;95.10;;;;;;5049754;28;20225;-79
2022/01/20 12:56:46;;;;;;;8.67;1.47;;;6.80;95.30;;;;;;5040930;28;20241;-79
2022/01/20 12:59:25;;;;;;;8.30;1.87;;;6.70;95.70;;;;;;5044703;28;20227;-78
2022/01/20 13:01:53;;;;;;;7.33;1.70;;;6.50;96.20;;;;;;5031527;28;20235;-79
2022/01/20 13:04:22;;;;;;;9.97;1.70;;;6.40;96.40;;;;;;5050122;28;20234;-79
2022/01/20 13:06:54;;;;;;;7.83;1.90;;;6.20;96.50;;;;;;5045188;28;20235;-78
2022/01/20 13:09:23;;;;;;;8.63;1.70;;;6.10;96.70;;;;;;5045968;28;20308;-79
2022/01/20 13:11:57;;;;;;;8.33;1.90;;;5.90;96.70;;;;;;5045613;28;20299;-79
2022/01/20 13:14:36;;;;;;;4.70;1.60;;;5.80;96.80;;;;;;5021929;28;20632;-77
2022/01/20 13:17:04;;;;;;;8.43;1.00;;;5.70;96.30;;;;;;5025529;28;20238;-79
2022/01/20 13:19:38;;;;;;;4.40;1.17;;;5.60;95.20;;;;;;5026562;28;20326;-77
2022/01/20 13:22:08;;;;;;;4.27;1.10;;;5.60;94.90;;;;;;5021211;28;20317;-79
2022/01/20 13:24:36;;;;;;;4.53;1.43;;;5.60;94.80;;;;;;5030851;28;20333;-79
2022/01/20 13:27:07;;;;;;;3.93;1.07;;;5.50;94.20;;;;;;5027164;28;20865;-79
2022/01/20 13:29:44;;;;;;;6.53;1.40;;;5.50;94.20;;;;;;5041795;28;20245;-78
2022/01/20 13:32:12;;;;;;;5.80;1.20;;;5.40;94.30;;;;;;5047548;28;20838;-79
2022/01/20 13:34:39;;;;;;;9.47;1.63;;;5.40;94.40;;;;;;5018375;28;20232;-79
2022/01/20 13:37:13;;;;;;;4.33;1.10;;;5.40;94.50;;;;;;5027063;28;20220;-79
2022/01/20 13:39:41;;;;;;;20.00;7.53;;;5.40;94.60;;;;;;5027169;28;20233;-79
2022/01/20 13:42:22;;;;;;;5.83;2.10;;;5.30;94.60;;;;;;5045940;28;20819;-79
2022/01/20 13:45:15;;;;;;;5.33;1.20;;;5.20;94.90;;;;;;5042902;28;20319;-79
2022/01/20 13:47:54;;;;;;;4.57;1.10;;;5.20;95.20;;;;;;5044147;28;20600;-79
2022/01/20 13:50:22;;;;;;;5.40;1.20;;;5.10;95.50;;;;;;5041178;28;20233;-79
2022/01/20 13:52:49;;;;;;;4.63;1.37;;;5.10;95.60;;;;;;5029269;28;20239;-78
2022/01/20 13:55:22;;;;;;;7.77;1.50;;;5.10;95.50;;;;;;5026458;28;20225;-79
2022/01/20 13:57:51;;;;;;;7.00;1.70;;;5.10;95.50;;;;;;5037156;28;20232;-79
2022/01/20 14:00:22;;;;;;;4.17;1.30;;;5.10;95.50;;;;;;5044250;28;20237;-79
2022/01/20 14:02:50;;;;;;;6.50;1.50;;;5.20;95.40;;;;;;5040028;28;20559;-79
2022/01/20 14:05:17;;;;;;;6.37;1.80;;;5.20;95.40;;;;;;5043667;28;20229;-78